createdAt,value
2023-03-27T00:01:33.983Z,10.27
2023-03-27T00:04:02.208Z,10.18
2023-03-27T00:06:30.206Z,10.15
2023-03-27T00:08:58.203Z,10.12
2023-03-27T00:11:26.578Z,10.10
2023-03-27T00:13:54.928Z,10.12
2023-03-27T00:16:26.764Z,10.24
2023-03-27T00:18:55.776Z,10.39
2023-03-27T00:21:24.523Z,10.49
2023-03-27T00:23:52.678Z,10.56
2023-03-27T00:26:22.068Z,10.65
2023-03-27T00:28:50.093Z,10.74
2023-03-27T00:31:18.298Z,10.77
2023-03-27T00:33:47.617Z,10.84
2023-03-27T00:36:15.744Z,10.83
2023-03-27T00:38:45.792Z,10.84
2023-03-27T00:41:13.892Z,10.81
2023-03-27T00:43:44.140Z,10.77
2023-03-27T00:46:31.482Z,10.75
2023-03-27T00:49:03.999Z,10.72
2023-03-27T00:51:32.391Z,10.69
2023-03-27T00:54:01.201Z,10.69
2023-03-27T00:56:30.597Z,10.80
2023-03-27T00:59:02.348Z,10.76
2023-03-27T01:01:31.925Z,10.75
2023-03-27T01:04:03.872Z,10.76
2023-03-27T01:06:33.108Z,10.74
2023-03-27T01:09:01.011Z,10.73
2023-03-27T01:11:39.474Z,10.74
2023-03-27T01:14:16.638Z,10.76
2023-03-27T01:16:56.793Z,10.69
2023-03-27T01:19:57.412Z,10.66
2023-03-27T01:23:04.015Z,10.67
2023-03-27T01:26:04.350Z,10.63
2023-03-27T01:28:41.098Z,10.60
2023-03-27T01:31:26.419Z,10.57
2023-03-27T01:34:11.200Z,10.59
2023-03-27T01:37:02.544Z,10.63
2023-03-27T01:39:40.165Z,10.66
2023-03-27T01:42:18.440Z,10.68
2023-03-27T01:44:52.295Z,10.65
2023-03-27T01:47:28.257Z,10.58
2023-03-27T01:50:04.959Z,10.44
2023-03-27T01:52:37.769Z,10.43
2023-03-27T01:55:11.714Z,10.40
2023-03-27T01:57:50.201Z,10.44
2023-03-27T02:00:23.196Z,10.47
2023-03-27T02:02:56.679Z,10.48
2023-03-27T02:05:30.813Z,10.44
2023-03-27T02:08:05.782Z,10.45
2023-03-27T02:10:41.664Z,10.34
2023-03-27T02:13:21.278Z,10.35
2023-03-27T02:15:51.626Z,10.33
2023-03-27T02:18:25.637Z,10.37
2023-03-27T02:20:53.960Z,10.43
2023-03-27T02:23:23.085Z,10.45
2023-03-27T02:25:54.243Z,10.50
2023-03-27T02:28:35.291Z,10.57
2023-03-27T02:31:32.245Z,10.60
2023-03-27T02:34:24.410Z,10.60
2023-03-27T02:37:02.116Z,10.57
2023-03-27T02:39:57.171Z,10.54
2023-03-27T02:42:35.984Z,10.53
2023-03-27T02:45:12.174Z,10.50
2023-03-27T02:47:43.991Z,10.54
2023-03-27T02:50:19.044Z,10.57
2023-03-27T02:52:52.983Z,10.59
2023-03-27T02:55:26.595Z,10.52
2023-03-27T02:58:02.298Z,10.34
2023-03-27T03:00:41.999Z,10.25
2023-03-27T03:03:35.913Z,10.24
2023-03-27T03:06:11.955Z,10.21
2023-03-27T03:08:39.990Z,9.95
2023-03-27T03:11:14.496Z,9.81
2023-03-27T03:13:43.913Z,9.82
2023-03-27T03:16:12.156Z,9.82
2023-03-27T03:18:41.160Z,9.86
2023-03-27T03:21:09.603Z,9.98
2023-03-27T03:23:39.127Z,10.08
2023-03-27T03:26:08.103Z,10.19
2023-03-27T03:29:00.536Z,10.26
2023-03-27T03:31:42.799Z,10.29
2023-03-27T03:34:11.743Z,10.14
2023-03-27T03:36:42.007Z,10.27
2023-03-27T03:39:11.344Z,10.27
2023-03-27T03:41:39.262Z,10.25
2023-03-27T03:44:09.072Z,10.24
2023-03-27T03:46:37.276Z,10.30
2023-03-27T03:49:05.466Z,10.36
2023-03-27T03:51:33.712Z,10.38
2023-03-27T03:54:01.959Z,10.39
2023-03-27T03:56:30.909Z,10.40
2023-03-27T03:58:59.130Z,10.40
2023-03-27T04:01:28.810Z,10.39
2023-03-27T04:04:02.234Z,10.24
2023-03-27T04:06:49.051Z,10.17
2023-03-27T04:09:17.219Z,10.20
2023-03-27T04:11:58.302Z,10.16
2023-03-27T04:14:45.291Z,10.11
2023-03-27T04:17:34.875Z,10.12
2023-03-27T04:20:05.935Z,10.16
2023-03-27T04:22:37.871Z,10.18
2023-03-27T04:25:09.528Z,10.23
2023-03-27T04:27:37.437Z,10.25
2023-03-27T04:30:15.926Z,10.21
2023-03-27T04:33:08.000Z,10.20
2023-03-27T04:36:05.635Z,10.16
2023-03-27T04:38:54.266Z,10.27
2023-03-27T04:41:22.420Z,10.30
2023-03-27T04:43:50.478Z,10.19
2023-03-27T04:46:18.610Z,10.13
2023-03-27T04:48:54.369Z,10.14
2023-03-27T04:51:36.607Z,10.18
2023-03-27T04:54:05.234Z,10.21
2023-03-27T04:56:35.183Z,10.28
2023-03-27T04:59:04.771Z,10.35
2023-03-27T05:04:19.545Z,10.48
2023-03-27T05:07:07.737Z,10.40
2023-03-27T05:09:35.598Z,10.41
2023-03-27T05:12:03.633Z,10.43
2023-03-27T05:14:38.368Z,10.47
2023-03-27T05:17:11.628Z,10.51
2023-03-27T05:19:43.386Z,10.52
2023-03-27T05:22:11.530Z,10.53
2023-03-27T05:24:49.048Z,10.53
2023-03-27T05:27:16.977Z,10.50
2023-03-27T05:29:49.128Z,10.55
2023-03-27T05:32:18.337Z,10.60
2023-03-27T05:34:54.493Z,10.60
2023-03-27T05:37:25.451Z,10.66
2023-03-27T05:40:15.184Z,10.60
2023-03-27T05:42:45.221Z,10.54
2023-03-27T05:45:14.576Z,10.32
2023-03-27T05:47:47.339Z,10.22
2023-03-27T05:50:18.119Z,10.29
2023-03-27T05:52:46.532Z,10.34
2023-03-27T05:55:15.224Z,10.46
2023-03-27T05:57:45.176Z,10.58
2023-03-27T06:00:16.082Z,10.71
2023-03-27T06:02:45.009Z,10.74
2023-03-27T06:05:17.256Z,10.79
2023-03-27T06:07:50.681Z,10.66
2023-03-27T06:10:20.294Z,10.63
2023-03-27T06:13:14.698Z,10.65
2023-03-27T06:15:56.313Z,10.73
2023-03-27T06:18:53.950Z,10.83
2023-03-27T06:21:23.936Z,10.92
2023-03-27T06:23:58.918Z,10.95
2023-03-27T06:26:28.546Z,10.81
2023-03-27T06:28:58.477Z,10.64
2023-03-27T06:31:29.512Z,10.56
2023-03-27T06:34:17.803Z,10.39
2023-03-27T06:36:55.696Z,10.33
2023-03-27T06:39:23.640Z,10.22
2023-03-27T06:41:53.730Z,10.19
2023-03-27T06:44:33.325Z,10.16
2023-03-27T06:47:01.431Z,10.19
2023-03-27T06:49:49.606Z,10.17
2023-03-27T06:52:24.748Z,10.17
2023-03-27T06:54:56.758Z,10.21
2023-03-27T06:57:24.760Z,10.19
2023-03-27T07:00:02.412Z,10.23
2023-03-27T07:02:51.434Z,10.20
2023-03-27T07:05:49.073Z,10.28
2023-03-27T07:08:23.426Z,10.33
2023-03-27T07:13:26.187Z,10.47
2023-03-27T07:15:55.115Z,10.51
2023-03-27T07:18:23.737Z,10.52
2023-03-27T07:20:54.901Z,10.57
2023-03-27T07:23:26.710Z,10.55
2023-03-27T07:26:06.970Z,10.59
2023-03-27T07:29:00.702Z,10.50
2023-03-27T07:31:37.293Z,10.51
2023-03-27T07:34:10.768Z,10.47
2023-03-27T07:37:14.540Z,10.60
2023-03-27T07:40:01.644Z,10.59
2023-03-27T07:42:30.260Z,10.61
2023-03-27T07:45:03.496Z,10.64
2023-03-27T07:47:32.344Z,10.73
2023-03-27T07:50:00.671Z,10.82
2023-03-27T07:52:29.367Z,10.81
2023-03-27T07:55:06.930Z,10.95
2023-03-27T07:57:59.872Z,11.00
2023-03-27T08:00:32.533Z,10.83
2023-03-27T08:03:11.456Z,10.78
2023-03-27T08:05:44.225Z,10.78
2023-03-27T08:08:14.815Z,10.89
2023-03-27T08:11:05.649Z,10.95
2023-03-27T08:13:38.157Z,10.95
2023-03-27T08:16:10.411Z,11.05
2023-03-27T08:18:38.858Z,11.19
2023-03-27T08:21:10.426Z,11.25
2023-03-27T08:23:41.032Z,11.31
2023-03-27T08:26:28.766Z,11.42
2023-03-27T08:28:59.350Z,11.30
2023-03-27T08:31:31.480Z,11.29
2023-03-27T08:34:01.710Z,11.32
2023-03-27T08:36:39.340Z,11.20
2023-03-27T08:39:08.231Z,11.18
2023-03-27T08:41:58.390Z,11.22
2023-03-27T08:44:38.713Z,11.24
2023-03-27T08:47:18.396Z,11.28
2023-03-27T08:49:58.211Z,11.27
2023-03-27T08:52:47.817Z,11.22
2023-03-27T08:55:33.834Z,11.32
2023-03-27T08:58:21.489Z,11.42
2023-03-27T09:01:02.070Z,11.21
2023-03-27T09:03:35.770Z,11.09
2023-03-27T09:06:10.560Z,11.08
2023-03-27T09:08:52.436Z,11.10
2023-03-27T09:11:33.802Z,11.08
2023-03-27T09:14:13.833Z,10.88
2023-03-27T09:16:49.498Z,10.79
2023-03-27T09:19:38.433Z,10.82
2023-03-27T09:22:12.905Z,10.75
2023-03-27T09:24:56.416Z,10.66
2023-03-27T09:27:50.681Z,10.68
2023-03-27T09:30:42.980Z,10.64
2023-03-27T09:33:16.444Z,10.71
2023-03-27T09:35:46.943Z,10.73
2023-03-27T09:38:26.161Z,10.77
2023-03-27T09:40:58.412Z,10.79
2023-03-27T09:43:34.205Z,10.96
2023-03-27T09:46:04.956Z,11.05
2023-03-27T09:48:38.698Z,11.07
2023-03-27T09:51:37.489Z,11.20
2023-03-27T09:54:08.303Z,11.12
2023-03-27T09:56:39.471Z,11.11
2023-03-27T09:59:20.129Z,11.12
2023-03-27T10:01:51.334Z,11.12
2023-03-27T10:04:21.917Z,10.96
2023-03-27T10:07:01.617Z,10.95
2023-03-27T10:10:07.154Z,10.89
2023-03-27T10:12:43.018Z,10.67
2023-03-27T10:15:33.005Z,10.47
2023-03-27T10:18:07.310Z,10.31
2023-03-27T10:20:35.944Z,10.16
2023-03-27T10:23:09.286Z,10.07
2023-03-27T10:25:39.970Z,9.76
2023-03-27T10:28:23.922Z,9.40
2023-03-27T10:31:28.164Z,9.14
2023-03-27T10:34:05.901Z,8.86
2023-03-27T10:36:55.388Z,8.81
2023-03-27T10:39:30.100Z,8.68
2023-03-27T10:42:27.693Z,8.64
2023-03-27T10:44:57.633Z,8.64
2023-03-27T10:47:32.577Z,8.58
2023-03-27T10:50:12.190Z,8.54
2023-03-27T10:52:54.530Z,8.46
2023-03-27T10:56:01.054Z,8.46
2023-03-27T10:58:35.188Z,8.46
2023-03-27T11:01:11.350Z,8.35
2023-03-27T11:03:52.504Z,8.32
2023-03-27T11:06:28.550Z,8.27
2023-03-27T11:09:05.897Z,8.27
2023-03-27T11:11:42.015Z,8.25
2023-03-27T11:14:18.595Z,8.21
2023-03-27T11:16:51.573Z,8.20
2023-03-27T11:19:34.368Z,8.03
2023-03-27T11:22:29.870Z,7.95
2023-03-27T11:25:05.866Z,8.00
2023-03-27T11:27:41.136Z,7.96
2023-03-27T11:30:26.684Z,7.86
2023-03-27T11:33:09.700Z,7.83
2023-03-27T11:35:42.642Z,7.85
2023-03-27T11:38:36.412Z,7.75
2023-03-27T11:41:08.075Z,7.69
2023-03-27T11:43:39.864Z,7.69
2023-03-27T11:46:36.932Z,7.65
2023-03-27T11:49:20.607Z,7.75
2023-03-27T11:52:02.965Z,7.73
2023-03-27T11:54:48.362Z,7.52
2023-03-27T11:57:24.698Z,7.57
2023-03-27T12:00:17.721Z,7.49
2023-03-27T12:03:14.582Z,7.20
2023-03-27T12:06:03.040Z,6.99
2023-03-27T12:08:51.122Z,6.91
2023-03-27T12:11:23.650Z,6.90
2023-03-27T12:14:19.321Z,6.84
2023-03-27T12:17:05.042Z,6.66
2023-03-27T12:20:17.509Z,6.55
2023-03-27T12:22:59.936Z,6.44
2023-03-27T12:26:17.392Z,6.42
2023-03-27T12:29:23.374Z,6.49
2023-03-27T12:32:12.063Z,6.58
2023-03-27T12:34:56.531Z,6.41
2023-03-27T12:37:34.703Z,6.39
2023-03-27T12:40:14.123Z,6.22
2023-03-27T12:42:51.667Z,6.21
2023-03-27T12:45:24.649Z,6.34
2023-03-27T12:48:18.694Z,6.30
2023-03-27T12:50:56.856Z,6.15
2023-03-27T12:53:55.078Z,6.02
2023-03-27T12:56:35.429Z,5.93
2023-03-27T12:59:15.886Z,5.89
2023-03-27T13:02:06.115Z,5.75
2023-03-27T13:05:27.302Z,5.75
2023-03-27T13:08:28.359Z,5.79
2023-03-27T13:11:34.526Z,5.68
2023-03-27T13:14:23.960Z,5.67
2023-03-27T13:17:16.112Z,5.66
2023-03-27T13:19:56.318Z,5.64
2023-03-27T13:22:45.822Z,5.73
2023-03-27T13:25:31.632Z,5.59
2023-03-27T13:28:35.723Z,5.63
2023-03-27T13:31:14.266Z,5.64
2023-03-27T13:33:46.536Z,5.52
2023-03-27T13:36:27.678Z,5.59
2023-03-27T13:39:21.156Z,5.54
2023-03-27T13:41:56.535Z,5.53
2023-03-27T13:44:41.840Z,5.43
2023-03-27T13:47:35.539Z,5.40
2023-03-27T13:50:24.628Z,5.53
2023-03-27T13:53:17.548Z,5.39
2023-03-27T13:56:20.933Z,5.18
2023-03-27T13:59:30.690Z,5.17
2023-03-27T14:02:13.970Z,5.11
2023-03-27T14:05:10.997Z,5.00
2023-03-27T14:08:15.223Z,4.99
2023-03-27T14:11:27.467Z,5.18
2023-03-27T14:14:17.805Z,5.26
2023-03-27T14:17:17.513Z,5.20
2023-03-27T14:20:19.096Z,5.24
2023-03-27T14:22:57.905Z,5.26
2023-03-27T14:25:35.162Z,5.33
2023-03-27T14:28:32.593Z,5.37
2023-03-27T14:31:07.200Z,5.40
2023-03-27T14:33:51.883Z,5.43
2023-03-27T14:36:24.151Z,5.35
2023-03-27T14:38:53.986Z,5.38
2023-03-27T14:41:46.618Z,5.36
2023-03-27T14:44:15.820Z,5.56
2023-03-27T14:46:47.989Z,5.62
2023-03-27T14:49:19.343Z,5.58
2023-03-27T14:51:55.525Z,5.46
2023-03-27T14:54:54.657Z,5.54
2023-03-27T14:57:28.849Z,5.53
2023-03-27T15:00:00.427Z,5.49
2023-03-27T15:02:32.521Z,5.56
2023-03-27T15:05:05.920Z,5.54
2023-03-27T15:07:35.733Z,5.36
2023-03-27T15:10:26.259Z,5.44
2023-03-27T15:13:12.892Z,5.46
2023-03-27T15:15:50.138Z,5.39
2023-03-27T15:18:28.217Z,5.33
2023-03-27T15:21:00.616Z,5.38
2023-03-27T15:23:36.707Z,5.28
2023-03-27T15:26:13.160Z,5.18
2023-03-27T15:28:49.893Z,5.21
2023-03-27T15:31:18.778Z,5.25
2023-03-27T15:34:02.198Z,5.24
2023-03-27T15:36:34.209Z,5.30
2023-03-27T15:39:04.167Z,5.21
2023-03-27T15:41:44.001Z,5.19
2023-03-27T15:44:18.073Z,5.17
2023-03-27T15:46:50.674Z,5.11
2023-03-27T15:49:25.878Z,5.17
2023-03-27T15:51:53.917Z,5.16
2023-03-27T15:54:33.599Z,5.16
2023-03-27T15:57:09.768Z,5.16
2023-03-27T15:59:51.927Z,5.18
2023-03-27T16:02:25.293Z,5.42
2023-03-27T16:04:55.855Z,5.73
2023-03-27T16:07:27.390Z,5.90
2023-03-27T16:09:58.347Z,6.12
2023-03-27T16:12:32.983Z,6.32
2023-03-27T16:15:04.355Z,6.43
2023-03-27T16:17:40.454Z,6.32
2023-03-27T16:20:34.114Z,6.37
2023-03-27T16:23:02.330Z,6.38
2023-03-27T16:25:30.199Z,6.34
2023-03-27T16:27:59.833Z,6.20
2023-03-27T16:30:30.682Z,6.12
2023-03-27T16:32:59.369Z,5.97
2023-03-27T16:35:27.838Z,5.96
2023-03-27T16:37:56.498Z,5.87
2023-03-27T16:40:24.887Z,5.62
2023-03-27T16:42:52.707Z,5.45
2023-03-27T16:45:22.025Z,5.40
2023-03-27T16:47:53.106Z,5.32
2023-03-27T16:50:26.748Z,5.11
2023-03-27T16:52:54.785Z,5.01
2023-03-27T16:55:23.043Z,4.92
2023-03-27T16:57:52.458Z,4.80
2023-03-27T17:00:22.944Z,4.71
2023-03-27T17:02:51.028Z,4.65
2023-03-27T17:05:19.046Z,4.64
2023-03-27T17:07:48.552Z,4.57
2023-03-27T17:10:17.108Z,4.52
2023-03-27T17:12:45.431Z,4.51
2023-03-27T17:15:15.116Z,4.47
2023-03-27T17:17:45.024Z,4.41
2023-03-27T17:20:13.388Z,4.36
2023-03-27T17:22:41.282Z,4.36
2023-03-27T17:25:10.234Z,4.31
2023-03-27T17:27:38.561Z,4.17
2023-03-27T17:30:07.942Z,4.29
2023-03-27T17:32:35.880Z,4.26
2023-03-27T17:35:05.601Z,4.25
2023-03-27T17:37:35.477Z,4.27
2023-03-27T17:40:09.451Z,4.23
2023-03-27T17:42:37.743Z,4.21
2023-03-27T17:45:06.725Z,4.19
2023-03-27T17:47:34.661Z,4.14
2023-03-27T17:50:02.646Z,4.13
2023-03-27T17:52:35.058Z,4.13
2023-03-27T17:55:02.916Z,4.13
2023-03-27T17:57:30.871Z,4.09
2023-03-27T17:59:59.317Z,4.09
2023-03-27T18:02:27.333Z,4.12
2023-03-27T18:04:55.436Z,4.15
2023-03-27T18:07:24.450Z,4.09
2023-03-27T18:09:53.759Z,4.10
2023-03-27T18:12:21.655Z,4.13
2023-03-27T18:14:49.566Z,4.16
2023-03-27T18:17:20.970Z,4.17
2023-03-27T18:19:49.032Z,4.14
2023-03-27T18:22:17.442Z,4.09
2023-03-27T18:24:45.505Z,4.02
2023-03-27T18:27:17.102Z,4.01
2023-03-27T18:29:45.039Z,4.02
2023-03-27T18:32:13.031Z,3.97
2023-03-27T18:34:41.380Z,4.01
2023-03-27T18:37:09.250Z,4.06
2023-03-27T18:39:37.724Z,4.03
2023-03-27T18:42:06.073Z,4.01
2023-03-27T18:44:38.008Z,3.94
2023-03-27T18:47:06.067Z,3.99
2023-03-27T18:49:33.954Z,4.02
2023-03-27T18:52:02.096Z,4.01
2023-03-27T18:54:30.487Z,3.96
2023-03-27T18:56:58.438Z,3.93
2023-03-27T18:59:27.064Z,3.90
2023-03-27T19:01:56.368Z,3.89
2023-03-27T19:04:24.346Z,3.81
2023-03-27T19:06:52.263Z,3.81
2023-03-27T19:09:23.482Z,3.78
2023-03-27T19:12:00.535Z,3.77
2023-03-27T19:14:46.747Z,3.77
2023-03-27T19:17:45.218Z,3.79
2023-03-27T19:20:33.430Z,3.79
2023-03-27T19:23:18.909Z,3.78
2023-03-27T19:25:54.844Z,3.76
2023-03-27T19:28:22.888Z,3.76
2023-03-27T19:30:52.896Z,3.77
2023-03-27T19:33:22.421Z,3.75
2023-03-27T19:35:53.620Z,3.70
2023-03-27T19:38:21.577Z,3.68
2023-03-27T19:40:49.453Z,3.68
2023-03-27T19:43:18.872Z,3.69
2023-03-27T19:46:04.287Z,3.55
2023-03-27T19:48:37.993Z,3.66
2023-03-27T19:51:12.367Z,3.64
2023-03-27T19:53:47.926Z,3.62
2023-03-27T19:56:16.110Z,3.64
2023-03-27T19:58:44.022Z,3.68
2023-03-27T20:01:12.184Z,3.62
2023-03-27T20:03:41.727Z,3.59
2023-03-27T20:06:18.793Z,3.57
2023-03-27T20:08:46.987Z,3.53
2023-03-27T20:11:16.745Z,3.53
2023-03-27T20:13:56.213Z,3.54
2023-03-27T20:16:26.566Z,3.53
2023-03-27T20:19:04.630Z,3.51
2023-03-27T20:21:35.017Z,3.51
2023-03-27T20:24:06.698Z,3.48
2023-03-27T20:26:40.093Z,3.52
2023-03-27T20:29:16.219Z,3.42
2023-03-27T20:31:45.516Z,3.35
2023-03-27T20:34:19.041Z,3.44
2023-03-27T20:36:47.392Z,3.42
2023-03-27T20:39:44.504Z,3.41
2023-03-27T20:42:15.013Z,3.41
2023-03-27T20:44:44.395Z,3.39
2023-03-27T20:47:12.706Z,3.35
2023-03-27T20:49:46.432Z,3.34
2023-03-27T20:52:16.209Z,3.32
2023-03-27T20:54:44.090Z,3.35
2023-03-27T20:57:13.315Z,3.30
2023-03-27T20:59:41.255Z,3.32
2023-03-27T21:02:16.251Z,3.31
2023-03-27T21:04:44.259Z,3.30
2023-03-27T21:07:13.424Z,3.28
2023-03-27T21:09:41.752Z,3.29
2023-03-27T21:12:09.903Z,3.29
2023-03-27T21:14:37.762Z,3.26
2023-03-27T21:17:05.664Z,3.28
2023-03-27T21:19:33.572Z,3.28
2023-03-27T21:22:01.373Z,3.27
2023-03-27T21:24:30.712Z,3.26
2023-03-27T21:27:00.062Z,3.24
2023-03-27T21:29:28.035Z,3.20
2023-03-27T21:31:55.890Z,3.23
2023-03-27T21:34:24.248Z,3.16
2023-03-27T21:36:52.356Z,3.17
2023-03-27T21:39:20.645Z,3.18
2023-03-27T21:41:49.908Z,3.12
2023-03-27T21:44:17.753Z,3.09
2023-03-27T21:46:45.589Z,3.03
2023-03-27T21:49:13.417Z,3.00
2023-03-27T21:51:41.230Z,3.01
2023-03-27T21:54:09.184Z,2.95
2023-03-27T21:56:37.144Z,3.02
2023-03-27T21:59:06.547Z,3.01
2023-03-27T22:01:34.622Z,2.99
2023-03-27T22:04:02.706Z,2.97
2023-03-27T22:06:30.967Z,2.96
2023-03-27T22:08:58.996Z,2.93
2023-03-27T22:11:26.825Z,2.93
2023-03-27T22:13:54.875Z,2.89
2023-03-27T22:16:24.421Z,2.88
2023-03-27T22:18:52.579Z,2.90
2023-03-27T22:21:23.000Z,2.91
2023-03-27T22:23:51.934Z,2.91
2023-03-27T22:26:20.325Z,2.91
2023-03-27T22:28:48.256Z,2.92
2023-03-27T22:31:16.638Z,2.96
2023-03-27T22:33:46.258Z,2.99
2023-03-27T22:36:14.887Z,3.00
2023-03-27T22:38:43.593Z,3.00
2023-03-27T22:41:12.512Z,3.03
2023-03-27T22:43:41.066Z,3.04
2023-03-27T22:46:10.725Z,3.03
2023-03-27T22:48:38.593Z,2.99
2023-03-27T22:51:09.033Z,2.96
2023-03-27T22:53:37.847Z,2.97
2023-03-27T22:56:07.466Z,2.98
2023-03-27T22:58:35.601Z,2.97
2023-03-27T23:01:04.827Z,2.92
2023-03-27T23:03:33.544Z,2.87
2023-03-27T23:06:01.807Z,2.84
2023-03-27T23:08:31.784Z,2.75
2023-03-27T23:11:01.716Z,2.74
2023-03-27T23:13:32.345Z,2.67
2023-03-27T23:16:01.013Z,2.69
2023-03-27T23:18:29.069Z,2.65
2023-03-27T23:20:57.775Z,2.62
2023-03-27T23:23:26.792Z,2.59
2023-03-27T23:25:57.679Z,2.58
2023-03-27T23:28:26.361Z,2.56
2023-03-27T23:30:55.602Z,2.56
2023-03-27T23:33:25.106Z,2.55
2023-03-27T23:35:54.306Z,2.54
2023-03-27T23:38:22.477Z,2.56
2023-03-27T23:40:57.651Z,2.52
2023-03-27T23:43:26.690Z,2.51
2023-03-27T23:45:55.935Z,2.51
2023-03-27T23:48:24.389Z,2.50
2023-03-27T23:50:53.223Z,2.49
2023-03-27T23:53:22.037Z,2.49
2023-03-27T23:55:50.106Z,2.51
2023-03-27T23:58:19.628Z,2.48
